createdAt,value
2018-02-09T00:02:27.116Z,130.20
2018-02-09T00:04:54.053Z,127.28
2018-02-09T00:07:21.736Z,123.82
2018-02-09T00:09:48.683Z,127.50
2018-02-09T00:12:15.596Z,118.30
2018-02-09T00:14:42.536Z,122.47
2018-02-09T00:17:09.443Z,121.80
2018-02-09T00:19:36.370Z,133.85
2018-02-09T00:22:03.291Z,129.63
2018-02-09T00:24:30.983Z,126.00
2018-02-09T00:26:57.900Z,128.35
2018-02-09T00:29:25.618Z,118.87
2018-02-09T00:31:52.551Z,124.15
2018-02-09T00:34:19.492Z,125.70
2018-02-09T00:36:46.408Z,129.63
2018-02-09T00:39:13.336Z,135.77
2018-02-09T00:41:41.925Z,131.55
2018-02-09T00:44:09.619Z,135.00
2018-02-09T00:46:36.537Z,135.05
2018-02-09T00:49:03.480Z,138.90
2018-02-09T00:51:31.164Z,122.50
2018-02-09T00:53:58.997Z,126.00
2018-02-09T00:56:26.689Z,123.68
2018-02-09T00:58:55.512Z,121.00
2018-02-09T01:01:22.448Z,113.32
2018-02-09T01:03:49.380Z,126.57
2018-02-09T01:06:17.320Z,134.20
2018-02-09T01:08:44.244Z,126.40
2018-02-09T01:11:11.956Z,126.45
2018-02-09T01:13:38.881Z,124.00
2018-02-09T01:16:05.808Z,128.50
2018-02-09T01:18:32.720Z,139.65
2018-02-09T01:21:00.417Z,141.93
2018-02-09T01:23:27.318Z,136.07
2018-02-09T01:25:55.011Z,119.55
2018-02-09T01:28:21.942Z,119.85
2018-02-09T01:30:50.634Z,134.25
2018-02-09T01:33:17.538Z,125.50
2018-02-09T01:35:44.468Z,119.75
2018-02-09T01:38:11.387Z,113.55
2018-02-09T01:40:38.298Z,118.82
2018-02-09T01:43:06.062Z,124.65
2018-02-09T01:45:33.737Z,116.95
2018-02-09T01:48:00.641Z,125.12
2018-02-09T01:50:28.521Z,130.18
2018-02-09T01:52:55.414Z,133.40
2018-02-09T01:55:22.324Z,122.93
2018-02-09T01:57:49.994Z,118.35
2018-02-09T02:00:16.931Z,132.32
2018-02-09T02:02:44.611Z,124.38
2018-02-09T02:05:11.586Z,140.77
2018-02-09T02:07:38.505Z,123.50
2018-02-09T02:10:05.433Z,125.60
2018-02-09T02:12:32.349Z,121.93
2018-02-09T02:15:00.194Z,146.10
2018-02-09T02:17:27.109Z,129.95
2018-02-09T02:19:54.026Z,142.48
2018-02-09T02:22:21.724Z,132.32
2018-02-09T02:24:49.647Z,130.25
2018-02-09T02:27:17.342Z,124.30
2018-02-09T02:29:45.172Z,131.15
2018-02-09T02:32:12.869Z,142.82
2018-02-09T02:34:39.784Z,122.95
2018-02-09T02:37:07.492Z,120.90
2018-02-09T02:39:34.404Z,131.90
2018-02-09T02:42:01.355Z,121.00
2018-02-09T02:44:28.305Z,127.47
2018-02-09T02:46:55.228Z,138.12
2018-02-09T02:49:22.896Z,145.30
2018-02-09T02:51:50.584Z,125.47
2018-02-09T02:54:17.512Z,136.00
2018-02-09T02:56:45.363Z,130.27
2018-02-09T02:59:14.049Z,132.05
2018-02-09T03:01:41.740Z,132.73
2018-02-09T03:04:08.654Z,128.12
2018-02-09T03:06:36.348Z,136.57
2018-02-09T03:09:03.256Z,138.02
2018-02-09T03:11:30.944Z,143.50
2018-02-09T03:13:57.859Z,145.10
2018-02-09T03:16:25.556Z,133.15
2018-02-09T03:18:52.463Z,126.80
2018-02-09T03:21:20.172Z,137.60
2018-02-09T03:23:47.081Z,123.07
2018-02-09T03:26:15.675Z,140.57
2018-02-09T03:28:42.612Z,131.90
2018-02-09T03:31:10.293Z,125.57
2018-02-09T03:33:37.203Z,138.05
2018-02-09T03:36:04.891Z,144.35
2018-02-09T03:38:31.795Z,139.88
2018-02-09T03:40:58.715Z,125.47
2018-02-09T03:43:25.623Z,132.52
2018-02-09T03:45:52.555Z,126.07
2018-02-09T03:48:20.240Z,128.75
2018-02-09T03:50:49.112Z,128.95
2018-02-09T03:53:16.048Z,118.35
2018-02-09T03:55:43.741Z,125.60
2018-02-09T03:58:10.661Z,129.10
2018-02-09T04:00:37.591Z,137.95
2018-02-09T04:03:05.283Z,134.07
2018-02-09T04:05:32.208Z,135.55
2018-02-09T04:07:59.888Z,119.47
2018-02-09T04:10:26.830Z,135.68
2018-02-09T04:12:53.742Z,132.50
2018-02-09T04:15:20.676Z,124.38
2018-02-09T04:17:47.592Z,132.18
2018-02-09T04:20:14.515Z,134.45
2018-02-09T04:22:41.436Z,126.22
2018-02-09T04:25:09.152Z,132.20
2018-02-09T04:27:36.067Z,130.77
2018-02-09T04:30:02.998Z,116.40
2018-02-09T04:32:29.918Z,138.65
2018-02-09T04:34:57.604Z,142.82
2018-02-09T04:37:24.503Z,134.00
2018-02-09T04:39:51.429Z,142.18
2018-02-09T04:42:18.360Z,129.23
2018-02-09T04:44:45.299Z,125.97
2018-02-09T04:47:12.212Z,123.20
2018-02-09T04:49:39.904Z,126.97
2018-02-09T04:52:06.820Z,120.32
2018-02-09T04:54:33.773Z,129.73
2018-02-09T04:57:00.701Z,133.85
2018-02-09T04:59:29.384Z,133.57
2018-02-09T05:01:57.104Z,137.45
2018-02-09T05:04:24.021Z,128.20
2018-02-09T05:06:50.948Z,136.37
2018-02-09T05:09:18.624Z,133.70
2018-02-09T05:11:45.551Z,125.35
2018-02-09T05:14:14.127Z,140.40
2018-02-09T05:16:41.064Z,138.52
2018-02-09T05:19:07.985Z,134.00
2018-02-09T05:21:34.908Z,136.90
2018-02-09T05:24:01.844Z,136.30
2018-02-09T05:26:28.768Z,128.60
2018-02-09T05:28:55.716Z,135.95
2018-02-09T05:31:22.657Z,134.63
2018-02-09T05:33:49.568Z,131.00
2018-02-09T05:36:16.496Z,134.98
2018-02-09T05:38:43.403Z,120.80
2018-02-09T05:41:10.348Z,126.25
2018-02-09T05:43:37.259Z,140.88
2018-02-09T05:46:04.952Z,113.10
2018-02-09T05:48:31.864Z,129.07
2018-02-09T05:50:59.557Z,121.07
2018-02-09T05:53:26.476Z,121.37
2018-02-09T05:55:54.177Z,141.12
2018-02-09T05:58:21.091Z,134.98
2018-02-09T06:00:48.014Z,137.05
2018-02-09T06:03:15.696Z,125.20
2018-02-09T06:05:42.626Z,124.60
2018-02-09T06:08:10.317Z,137.90
2018-02-09T06:10:37.271Z,136.37
2018-02-09T06:13:05.204Z,128.15
2018-02-09T06:15:32.904Z,132.48
2018-02-09T06:17:59.812Z,140.10
2018-02-09T06:20:27.508Z,122.72
2018-02-09T06:22:54.424Z,132.60
2018-02-09T06:25:22.120Z,125.70
2018-02-09T06:27:49.040Z,118.82
2018-02-09T06:30:15.959Z,135.32
2018-02-09T06:32:43.640Z,134.45
2018-02-09T06:35:11.336Z,126.82
2018-02-09T06:37:38.264Z,123.45
2018-02-09T06:40:05.183Z,126.68
2018-02-09T06:42:32.864Z,117.30
2018-02-09T06:44:59.807Z,116.75
2018-02-09T06:47:27.649Z,127.30
2018-02-09T06:49:55.356Z,130.12
2018-02-09T06:52:22.276Z,145.15
2018-02-09T06:54:49.217Z,135.57
2018-02-09T06:57:16.127Z,126.93
2018-02-09T06:59:43.056Z,121.00
2018-02-09T07:02:11.625Z,121.68
2018-02-09T07:04:39.459Z,125.55
2018-02-09T07:07:10.344Z,127.05
2018-02-09T07:09:37.284Z,114.93
2018-02-09T07:12:04.194Z,123.60
2018-02-09T07:14:32.039Z,113.28
2018-02-09T07:16:58.953Z,122.50
2018-02-09T07:19:25.880Z,124.78
2018-02-09T07:21:52.794Z,116.65
2018-02-09T07:24:19.739Z,122.00
2018-02-09T07:26:46.647Z,117.00
2018-02-09T07:29:15.351Z,138.48
2018-02-09T07:31:42.270Z,124.62
2018-02-09T07:34:09.199Z,115.20
2018-02-09T07:36:36.111Z,114.65
2018-02-09T07:39:03.040Z,136.70
2018-02-09T07:41:29.949Z,121.07
2018-02-09T07:43:57.631Z,116.75
2018-02-09T07:46:25.340Z,115.90
2018-02-09T07:48:52.260Z,118.22
2018-02-09T07:51:19.197Z,114.45
2018-02-09T07:53:46.108Z,111.53
2018-02-09T07:56:13.032Z,120.13
2018-02-09T07:58:39.934Z,128.82
2018-02-09T08:01:06.856Z,106.25
2018-02-09T08:03:34.531Z,125.18
2018-02-09T08:06:01.452Z,122.03
2018-02-09T08:08:28.354Z,117.00
2018-02-09T08:10:56.271Z,128.07
2018-02-09T08:13:23.948Z,117.65
2018-02-09T08:15:52.827Z,117.20
2018-02-09T08:18:20.499Z,111.18
2018-02-09T08:20:47.433Z,127.60
2018-02-09T08:23:15.108Z,122.35
2018-02-09T08:25:42.041Z,132.15
2018-02-09T08:28:08.960Z,121.22
2018-02-09T08:30:36.851Z,122.90
2018-02-09T08:33:03.767Z,113.03
2018-02-09T08:35:30.700Z,110.80
2018-02-09T08:37:57.617Z,126.55
2018-02-09T08:40:24.553Z,121.75
2018-02-09T08:42:51.479Z,115.57
2018-02-09T08:45:18.416Z,110.47
2018-02-09T08:47:45.327Z,114.10
2018-02-09T08:50:12.256Z,110.05
2018-02-09T08:52:41.080Z,117.53
2018-02-09T08:55:09.780Z,116.97
2018-02-09T08:57:36.693Z,132.02
2018-02-09T09:00:03.626Z,127.07
2018-02-09T09:02:30.548Z,133.27
2018-02-09T09:04:58.796Z,121.25
2018-02-09T09:07:25.700Z,114.95
2018-02-09T09:09:52.628Z,124.12
2018-02-09T09:12:19.547Z,131.98
2018-02-09T09:14:47.388Z,117.45
2018-02-09T09:17:14.297Z,125.00
2018-02-09T09:19:41.227Z,101.15
2018-02-09T09:22:08.137Z,120.97
2018-02-09T09:24:35.067Z,122.32
2018-02-09T09:27:01.975Z,112.55
2018-02-09T09:29:29.864Z,105.63
2018-02-09T09:31:57.536Z,100.35
2018-02-09T09:34:24.460Z,107.95
2018-02-09T09:36:52.160Z,118.00
2018-02-09T09:39:20.004Z,130.40
2018-02-09T09:41:48.683Z,112.30
2018-02-09T09:44:16.380Z,123.95
2018-02-09T09:46:44.203Z,109.15
2018-02-09T09:49:11.883Z,116.20
2018-02-09T09:51:38.787Z,114.55
2018-02-09T09:54:05.703Z,119.15
2018-02-09T09:56:32.624Z,123.60
2018-02-09T09:59:00.476Z,116.30
2018-02-09T10:01:28.156Z,115.55
2018-02-09T10:03:56.000Z,131.07
2018-02-09T10:06:24.588Z,116.22
2018-02-09T10:08:53.280Z,122.40
2018-02-09T10:11:20.192Z,121.32
2018-02-09T10:13:47.117Z,114.93
2018-02-09T10:16:14.024Z,126.03
2018-02-09T10:18:40.952Z,120.00
2018-02-09T10:21:08.626Z,116.30
2018-02-09T10:23:35.556Z,123.35
2018-02-09T10:26:02.474Z,129.23
2018-02-09T10:28:29.396Z,122.65
2018-02-09T10:30:56.311Z,119.78
2018-02-09T10:33:23.235Z,117.90
2018-02-09T10:35:51.900Z,114.97
2018-02-09T10:38:18.819Z,113.50
2018-02-09T10:40:45.732Z,112.40
2018-02-09T10:43:12.672Z,119.28
2018-02-09T10:45:39.612Z,126.40
2018-02-09T10:48:06.537Z,113.55
2018-02-09T10:50:34.211Z,112.85
2018-02-09T10:53:01.137Z,122.53
2018-02-09T10:55:28.816Z,111.22
2018-02-09T10:57:55.728Z,114.78
2018-02-09T11:00:22.688Z,135.63
2018-02-09T11:02:50.364Z,130.82
2018-02-09T11:05:17.280Z,128.65
2018-02-09T11:07:44.212Z,133.77
2018-02-09T11:10:11.125Z,112.12
2018-02-09T11:12:38.048Z,115.47
2018-02-09T11:15:04.963Z,136.27
2018-02-09T11:17:32.675Z,118.43
2018-02-09T11:20:00.355Z,114.00
2018-02-09T11:22:27.284Z,118.57
2018-02-09T11:24:54.999Z,112.00
2018-02-09T11:27:21.908Z,113.43
2018-02-09T11:29:48.874Z,124.28
2018-02-09T11:32:16.704Z,133.57
2018-02-09T11:34:44.392Z,126.87
2018-02-09T11:37:11.323Z,113.22
2018-02-09T11:39:38.231Z,122.80
2018-02-09T11:42:05.916Z,129.65
2018-02-09T11:44:33.604Z,131.10
2018-02-09T11:47:00.507Z,119.18
2018-02-09T11:49:30.163Z,110.55
2018-02-09T11:51:57.045Z,127.87
2018-02-09T11:54:23.959Z,133.35
2018-02-09T11:56:51.862Z,125.75
2018-02-09T11:59:20.580Z,132.07
2018-02-09T12:01:47.499Z,124.60
2018-02-09T12:04:15.199Z,121.15
2018-02-09T12:06:42.096Z,124.43
2018-02-09T12:09:09.023Z,132.23
2018-02-09T12:11:35.936Z,120.30
2018-02-09T12:14:02.859Z,118.70
2018-02-09T12:16:29.776Z,135.80
2018-02-09T12:18:56.699Z,132.82
2018-02-09T12:21:23.616Z,128.12
2018-02-09T12:23:50.561Z,131.45
2018-02-09T12:26:17.464Z,137.85
2018-02-09T12:28:45.157Z,133.02
2018-02-09T12:31:12.068Z,140.05
2018-02-09T12:33:39.773Z,121.15
2018-02-09T12:36:06.681Z,141.70
2018-02-09T12:38:35.286Z,130.23
2018-02-09T12:41:03.111Z,118.85
2018-02-09T12:43:30.036Z,131.25
2018-02-09T12:45:57.005Z,134.98
2018-02-09T12:48:23.898Z,130.95
2018-02-09T12:50:54.531Z,126.28
2018-02-09T12:53:21.466Z,129.40
2018-02-09T12:55:48.421Z,124.45
2018-02-09T12:58:15.356Z,117.20
2018-02-09T13:00:43.175Z,122.70
2018-02-09T13:03:11.071Z,128.80
2018-02-09T13:05:37.975Z,122.95
2018-02-09T13:08:04.886Z,118.90
2018-02-09T13:10:32.791Z,119.65
2018-02-09T13:13:06.601Z,117.13
2018-02-09T13:15:33.508Z,117.03
2018-02-09T13:18:00.436Z,121.35
2018-02-09T13:20:27.348Z,134.80
2018-02-09T13:23:06.907Z,126.38
2018-02-09T13:25:33.811Z,105.12
2018-02-09T13:28:00.729Z,115.90
2018-02-09T13:30:27.656Z,113.60
2018-02-09T13:33:06.520Z,116.50
2018-02-09T13:35:33.429Z,117.03
2018-02-09T13:38:00.352Z,106.00
2018-02-09T13:40:27.256Z,122.97
2018-02-09T13:42:54.188Z,102.18
2018-02-09T13:45:22.088Z,116.55
2018-02-09T13:47:49.784Z,119.85
2018-02-09T13:50:16.692Z,109.05
2018-02-09T13:52:44.391Z,113.82
2018-02-09T13:55:11.299Z,120.25
2018-02-09T13:57:38.967Z,115.47
2018-02-09T14:00:06.657Z,118.60
2018-02-09T14:02:33.564Z,115.22
2018-02-09T14:05:02.264Z,111.60
2018-02-09T14:07:29.988Z,116.85
2018-02-09T14:09:56.900Z,120.55
2018-02-09T14:12:23.824Z,126.40
2018-02-09T14:14:50.755Z,114.18
2018-02-09T14:17:19.449Z,123.40
2018-02-09T14:19:46.383Z,103.45
2018-02-09T14:22:14.053Z,110.43
2018-02-09T14:24:41.735Z,120.62
2018-02-09T14:27:08.640Z,115.72
2018-02-09T14:29:36.340Z,121.18
2018-02-09T14:32:03.245Z,112.62
2018-02-09T14:34:31.134Z,117.07
2018-02-09T14:36:58.045Z,121.30
2018-02-09T14:39:25.128Z,131.50
2018-02-09T14:41:52.276Z,119.10
2018-02-09T14:44:19.196Z,111.10
2018-02-09T14:46:46.125Z,118.22
2018-02-09T14:49:15.776Z,124.38
2018-02-09T14:51:43.624Z,122.05
2018-02-09T14:54:11.316Z,123.82
2018-02-09T14:56:38.224Z,120.50
2018-02-09T14:59:05.148Z,123.50
2018-02-09T15:01:32.065Z,123.65
2018-02-09T15:03:58.994Z,127.97
2018-02-09T15:06:25.908Z,125.62
2018-02-09T15:08:54.613Z,127.00
2018-02-09T15:11:21.523Z,134.55
2018-02-09T15:13:48.464Z,123.80
2018-02-09T15:16:15.418Z,139.05
2018-02-09T15:18:43.340Z,138.18
2018-02-09T15:21:10.273Z,128.25
2018-02-09T15:23:37.220Z,136.45
2018-02-09T15:26:04.138Z,132.07
2018-02-09T15:28:35.315Z,153.57
2018-02-09T15:31:02.264Z,141.50
2018-02-09T15:33:29.198Z,125.85
2018-02-09T15:35:56.124Z,147.23
2018-02-09T15:38:23.072Z,126.15
2018-02-09T15:40:51.956Z,145.25
2018-02-09T15:43:19.835Z,155.37
2018-02-09T15:45:46.750Z,155.45
2018-02-09T15:48:15.456Z,149.60
2018-02-09T15:50:42.387Z,137.02
2018-02-09T15:53:10.078Z,154.35
2018-02-09T15:55:38.948Z,160.10
2018-02-09T15:58:05.872Z,141.60
2018-02-09T16:00:32.779Z,158.40
2018-02-09T16:03:00.708Z,144.87
2018-02-09T16:05:27.623Z,149.40
2018-02-09T16:07:55.561Z,140.27
2018-02-09T16:10:23.492Z,158.30
2018-02-09T16:12:50.404Z,146.95
2018-02-09T16:15:17.328Z,132.40
2018-02-09T16:17:44.260Z,164.35
2018-02-09T16:20:11.168Z,151.87
2018-02-09T16:22:38.311Z,150.95
2018-02-09T16:25:05.224Z,154.63
2018-02-09T16:27:32.271Z,160.02
2018-02-09T16:29:59.212Z,157.73
2018-02-09T16:32:26.136Z,161.00
2018-02-09T16:34:53.093Z,148.13
2018-02-09T16:37:20.036Z,152.90
2018-02-09T16:39:46.979Z,154.98
2018-02-09T16:42:13.920Z,164.07
2018-02-09T16:44:40.852Z,161.75
2018-02-09T16:47:07.776Z,145.87
2018-02-09T16:49:34.708Z,140.07
2018-02-09T16:52:01.628Z,153.15
2018-02-09T16:54:29.329Z,146.68
2018-02-09T16:56:56.316Z,151.60
2018-02-09T16:59:23.253Z,152.27
2018-02-09T17:01:50.183Z,159.63
2018-02-09T17:04:17.133Z,159.63
2018-02-09T17:06:44.051Z,154.27
2018-02-09T17:09:10.983Z,151.68
2018-02-09T17:11:37.911Z,164.93
2018-02-09T17:14:05.608Z,156.37
2018-02-09T17:16:32.530Z,156.68
2018-02-09T17:19:00.398Z,166.93
2018-02-09T17:21:27.337Z,164.88
2018-02-09T17:23:55.034Z,160.55
2018-02-09T17:26:21.943Z,148.85
2018-02-09T17:28:49.636Z,166.70
2018-02-09T17:31:16.553Z,180.45
2018-02-09T17:33:43.506Z,158.12
2018-02-09T17:36:10.430Z,163.48
2018-02-09T17:38:40.061Z,173.95
2018-02-09T17:41:07.019Z,170.48
2018-02-09T17:43:34.889Z,160.70
2018-02-09T17:46:01.808Z,164.30
2018-02-09T17:48:28.752Z,162.30
2018-02-09T17:50:55.709Z,171.50
2018-02-09T17:53:22.634Z,172.48
2018-02-09T17:55:50.312Z,161.50
2018-02-09T17:58:17.238Z,167.35
2018-02-09T18:00:44.154Z,164.20
2018-02-09T18:03:11.087Z,158.57
2018-02-09T18:05:38.794Z,155.20
2018-02-09T18:08:05.730Z,157.93
2018-02-09T18:10:33.407Z,154.23
2018-02-09T18:13:00.335Z,171.70
2018-02-09T18:15:27.273Z,160.52
2018-02-09T18:17:54.976Z,172.55
2018-02-09T18:20:21.898Z,186.77
2018-02-09T18:22:49.638Z,172.00
2018-02-09T18:25:17.331Z,172.95
2018-02-09T18:27:44.279Z,174.62
2018-02-09T18:30:11.228Z,161.32
2018-02-09T18:32:38.136Z,167.07
2018-02-09T18:35:06.843Z,170.55
2018-02-09T18:37:33.765Z,161.57
2018-02-09T18:40:01.478Z,162.02
2018-02-09T18:42:28.415Z,175.68
2018-02-09T18:44:55.344Z,166.65
2018-02-09T18:47:22.255Z,177.60
2018-02-09T18:49:49.238Z,161.82
2018-02-09T18:52:16.167Z,177.98
2018-02-09T18:54:44.837Z,164.52
2018-02-09T18:57:13.547Z,170.18
2018-02-09T18:59:41.403Z,188.85
2018-02-09T19:02:09.104Z,175.52
2018-02-09T19:04:36.052Z,170.95
2018-02-09T19:07:02.989Z,183.02
2018-02-09T19:09:29.922Z,177.85
2018-02-09T19:11:56.840Z,171.57
2018-02-09T19:14:24.539Z,171.27
2018-02-09T19:16:51.452Z,188.23
2018-02-09T19:19:18.379Z,167.90
2018-02-09T19:21:47.067Z,173.60
2018-02-09T19:24:14.756Z,173.70
2018-02-09T19:26:41.677Z,173.80
2018-02-09T19:29:08.610Z,177.10
2018-02-09T19:31:37.531Z,173.87
2018-02-09T19:34:05.234Z,182.95
2018-02-09T19:36:32.149Z,185.07
2018-02-09T19:39:00.856Z,161.23
2018-02-09T19:41:27.781Z,186.77
2018-02-09T19:43:54.710Z,177.38
2018-02-09T19:46:22.389Z,166.43
2018-02-09T19:48:50.248Z,171.52
2018-02-09T19:51:20.125Z,182.32
2018-02-09T19:53:47.055Z,176.95
2018-02-09T19:56:13.983Z,182.77
2018-02-09T19:58:40.892Z,177.48
2018-02-09T20:01:08.588Z,178.73
2018-02-09T20:03:36.409Z,180.10
2018-02-09T20:06:03.336Z,184.50
2018-02-09T20:08:30.258Z,186.20
2018-02-09T20:10:57.292Z,165.68
2018-02-09T20:13:25.223Z,172.70
2018-02-09T20:15:52.916Z,194.70
2018-02-09T20:18:19.842Z,185.07
2018-02-09T20:20:46.776Z,186.35
2018-02-09T20:23:13.693Z,191.52
2018-02-09T20:25:40.627Z,164.57
2018-02-09T20:28:07.607Z,172.15
2018-02-09T20:30:35.314Z,185.20
2018-02-09T20:33:02.293Z,185.02
2018-02-09T20:35:29.184Z,186.02
2018-02-09T20:37:56.112Z,204.02
2018-02-09T20:40:23.048Z,189.87
2018-02-09T20:42:51.728Z,199.05
2018-02-09T20:45:19.428Z,194.02
2018-02-09T20:47:46.374Z,178.87
2018-02-09T20:50:14.320Z,181.85
2018-02-09T20:52:41.231Z,192.45
2018-02-09T20:55:08.160Z,181.73
2018-02-09T20:57:38.319Z,183.37
2018-02-09T21:00:05.256Z,188.30
2018-02-09T21:02:32.932Z,191.30
2018-02-09T21:05:00.560Z,189.00
2018-02-09T21:07:28.258Z,188.30
2018-02-09T21:09:55.157Z,185.35
2018-02-09T21:12:22.061Z,191.43
2018-02-09T21:14:48.963Z,193.95
2018-02-09T21:17:15.883Z,185.35
2018-02-09T21:19:43.788Z,192.65
2018-02-09T21:22:11.484Z,179.10
2018-02-09T21:24:38.403Z,188.18
2018-02-09T21:27:05.327Z,200.10
2018-02-09T21:29:33.012Z,205.02
2018-02-09T21:32:00.872Z,188.75
2018-02-09T21:34:27.813Z,179.35
2018-02-09T21:36:55.496Z,181.82
2018-02-09T21:39:23.326Z,187.43
2018-02-09T21:41:50.247Z,186.70
2018-02-09T21:44:17.147Z,191.85
2018-02-09T21:46:44.087Z,183.50
2018-02-09T21:49:11.005Z,166.88
2018-02-09T21:51:38.694Z,187.27
2018-02-09T21:54:05.664Z,182.15
2018-02-09T21:56:32.570Z,199.57
2018-02-09T21:59:00.459Z,194.18
2018-02-09T22:01:27.407Z,191.50
2018-02-09T22:03:54.317Z,175.50
2018-02-09T22:06:21.253Z,220.15
2018-02-09T22:08:49.060Z,199.02
2018-02-09T22:11:15.984Z,191.02
2018-02-09T22:13:42.915Z,212.93
2018-02-09T22:16:14.332Z,193.77
2018-02-09T22:18:41.248Z,192.50
2018-02-09T22:21:08.188Z,202.20
2018-02-09T22:23:35.124Z,195.82
2018-02-09T22:26:02.056Z,191.25
2018-02-09T22:28:28.983Z,198.45
2018-02-09T22:30:56.695Z,192.95
2018-02-09T22:33:23.619Z,202.23
2018-02-09T22:35:50.559Z,197.87
2018-02-09T22:38:17.503Z,195.15
2018-02-09T22:40:44.460Z,199.60
2018-02-09T22:43:11.372Z,193.05
2018-02-09T22:45:39.258Z,184.27
2018-02-09T22:48:06.180Z,223.15
2018-02-09T22:50:34.800Z,189.70
2018-02-09T22:53:01.713Z,200.68
2018-02-09T22:55:29.601Z,211.62
2018-02-09T22:57:56.531Z,190.27
2018-02-09T23:00:24.243Z,194.23
2018-02-09T23:02:51.159Z,195.87
2018-02-09T23:05:21.507Z,188.80
2018-02-09T23:07:49.335Z,187.10
2018-02-09T23:10:16.289Z,188.40
2018-02-09T23:12:43.219Z,207.00
2018-02-09T23:15:10.924Z,198.07
2018-02-09T23:17:37.829Z,193.27
2018-02-09T23:20:04.756Z,186.73
2018-02-09T23:22:32.454Z,201.15
2018-02-09T23:24:59.396Z,211.62
2018-02-09T23:27:26.311Z,183.73
2018-02-09T23:29:55.098Z,206.55
2018-02-09T23:32:24.699Z,190.75
2018-02-09T23:34:51.663Z,204.18
2018-02-09T23:37:18.599Z,199.52
2018-02-09T23:39:46.296Z,200.68
2018-02-09T23:42:13.297Z,187.32
2018-02-09T23:44:40.254Z,203.80
2018-02-09T23:47:07.928Z,201.62
2018-02-09T23:49:34.907Z,202.20
2018-02-09T23:52:01.831Z,209.57
2018-02-09T23:54:28.755Z,198.65
2018-02-09T23:56:55.687Z,185.23
2018-02-09T23:59:23.387Z,170.85
